sensor_id;sensor_type;location;lat;lon;timestamp;P1;durP1;ratioP1;P2;durP2;ratioP2
20478;SDS011;10398;52.490;13.434;2024-03-07T00:02:18;58.27;;;17.47;;
20478;SDS011;10398;52.490;13.434;2024-03-07T00:04:44;69.60;;;16.40;;
20478;SDS011;10398;52.490;13.434;2024-03-07T00:07:10;63.47;;;16.23;;
20478;SDS011;10398;52.490;13.434;2024-03-07T00:09:36;72.70;;;18.27;;
20478;SDS011;10398;52.490;13.434;2024-03-07T00:12:01;72.53;;;16.23;;
20478;SDS011;10398;52.490;13.434;2024-03-07T00:14:28;57.00;;;14.93;;
20478;SDS011;10398;52.490;13.434;2024-03-07T00:16:56;65.87;;;16.07;;
20478;SDS011;10398;52.490;13.434;2024-03-07T00:19:24;68.90;;;16.57;;
20478;SDS011;10398;52.490;13.434;2024-03-07T00:21:55;66.07;;;16.30;;
20478;SDS011;10398;52.490;13.434;2024-03-07T00:24:21;96.53;;;17.87;;
20478;SDS011;10398;52.490;13.434;2024-03-07T00:26:47;55.43;;;15.13;;
20478;SDS011;10398;52.490;13.434;2024-03-07T00:29:16;61.47;;;15.10;;
20478;SDS011;10398;52.490;13.434;2024-03-07T00:31:45;70.53;;;15.53;;
20478;SDS011;10398;52.490;13.434;2024-03-07T00:34:12;66.10;;;15.47;;
20478;SDS011;10398;52.490;13.434;2024-03-07T00:36:39;49.27;;;14.30;;
20478;SDS011;10398;52.490;13.434;2024-03-07T00:39:05;55.67;;;15.00;;
20478;SDS011;10398;52.490;13.434;2024-03-07T00:41:33;67.53;;;15.97;;
20478;SDS011;10398;52.490;13.434;2024-03-07T00:43:59;66.83;;;15.73;;
20478;SDS011;10398;52.490;13.434;2024-03-07T00:46:25;64.27;;;15.93;;
20478;SDS011;10398;52.490;13.434;2024-03-07T00:48:50;50.87;;;15.43;;
20478;SDS011;10398;52.490;13.434;2024-03-07T00:51:16;54.37;;;14.07;;
20478;SDS011;10398;52.490;13.434;2024-03-07T00:53:41;49.87;;;15.57;;
20478;SDS011;10398;52.490;13.434;2024-03-07T00:56:07;56.60;;;14.53;;
20478;SDS011;10398;52.490;13.434;2024-03-07T00:58:33;62.10;;;14.83;;
20478;SDS011;10398;52.490;13.434;2024-03-07T01:00:59;67.60;;;15.73;;
20478;SDS011;10398;52.490;13.434;2024-03-07T01:03:25;63.13;;;14.87;;
20478;SDS011;10398;52.490;13.434;2024-03-07T01:05:52;56.30;;;14.23;;
20478;SDS011;10398;52.490;13.434;2024-03-07T01:08:17;59.57;;;14.10;;
20478;SDS011;10398;52.490;13.434;2024-03-07T01:10:43;67.17;;;16.97;;
20478;SDS011;10398;52.490;13.434;2024-03-07T01:13:09;58.10;;;14.80;;
20478;SDS011;10398;52.490;13.434;2024-03-07T01:15:43;55.33;;;15.70;;
20478;SDS011;10398;52.490;13.434;2024-03-07T01:18:09;60.03;;;13.60;;
20478;SDS011;10398;52.490;13.434;2024-03-07T01:20:35;65.10;;;16.13;;
20478;SDS011;10398;52.490;13.434;2024-03-07T01:23:00;64.50;;;14.10;;
20478;SDS011;10398;52.490;13.434;2024-03-07T01:25:26;49.53;;;14.30;;
20478;SDS011;10398;52.490;13.434;2024-03-07T01:27:52;60.03;;;13.37;;
20478;SDS011;10398;52.490;13.434;2024-03-07T01:30:17;62.13;;;16.67;;
20478;SDS011;10398;52.490;13.434;2024-03-07T01:32:43;55.13;;;14.13;;
20478;SDS011;10398;52.490;13.434;2024-03-07T01:35:09;63.90;;;15.97;;
20478;SDS011;10398;52.490;13.434;2024-03-07T01:37:35;68.50;;;15.33;;
20478;SDS011;10398;52.490;13.434;2024-03-07T01:40:02;67.20;;;14.53;;
20478;SDS011;10398;52.490;13.434;2024-03-07T01:42:30;65.90;;;14.13;;
20478;SDS011;10398;52.490;13.434;2024-03-07T01:44:56;70.53;;;15.73;;
20478;SDS011;10398;52.490;13.434;2024-03-07T01:47:21;72.03;;;14.87;;
20478;SDS011;10398;52.490;13.434;2024-03-07T01:49:47;62.17;;;17.30;;
20478;SDS011;10398;52.490;13.434;2024-03-07T01:52:13;50.80;;;13.33;;
20478;SDS011;10398;52.490;13.434;2024-03-07T01:54:39;53.03;;;15.23;;
20478;SDS011;10398;52.490;13.434;2024-03-07T01:57:05;47.40;;;13.67;;
20478;SDS011;10398;52.490;13.434;2024-03-07T01:59:32;50.00;;;13.60;;
20478;SDS011;10398;52.490;13.434;2024-03-07T02:01:58;55.27;;;12.83;;
20478;SDS011;10398;52.490;13.434;2024-03-07T02:04:27;43.63;;;14.07;;
20478;SDS011;10398;52.490;13.434;2024-03-07T02:06:52;41.47;;;12.63;;
20478;SDS011;10398;52.490;13.434;2024-03-07T02:09:20;50.13;;;14.90;;
20478;SDS011;10398;52.490;13.434;2024-03-07T02:11:49;49.57;;;13.47;;
20478;SDS011;10398;52.490;13.434;2024-03-07T02:14:14;49.17;;;14.17;;
20478;SDS011;10398;52.490;13.434;2024-03-07T02:16:41;51.17;;;13.50;;
20478;SDS011;10398;52.490;13.434;2024-03-07T02:19:07;46.30;;;13.67;;
20478;SDS011;10398;52.490;13.434;2024-03-07T02:21:38;46.27;;;13.83;;
20478;SDS011;10398;52.490;13.434;2024-03-07T02:24:04;47.60;;;13.20;;
20478;SDS011;10398;52.490;13.434;2024-03-07T02:26:30;45.80;;;13.17;;
20478;SDS011;10398;52.490;13.434;2024-03-07T02:28:56;56.03;;;14.73;;
20478;SDS011;10398;52.490;13.434;2024-03-07T02:31:21;47.60;;;12.83;;
20478;SDS011;10398;52.490;13.434;2024-03-07T02:34:00;47.17;;;11.97;;
20478;SDS011;10398;52.490;13.434;2024-03-07T02:36:26;55.23;;;14.40;;
20478;SDS011;10398;52.490;13.434;2024-03-07T02:38:52;54.33;;;14.00;;
20478;SDS011;10398;52.490;13.434;2024-03-07T02:41:17;59.57;;;15.10;;
20478;SDS011;10398;52.490;13.434;2024-03-07T02:43:43;61.00;;;14.50;;
20478;SDS011;10398;52.490;13.434;2024-03-07T02:46:09;51.30;;;14.90;;
20478;SDS011;10398;52.490;13.434;2024-03-07T02:48:36;48.87;;;12.70;;
20478;SDS011;10398;52.490;13.434;2024-03-07T02:51:03;45.70;;;12.87;;
20478;SDS011;10398;52.490;13.434;2024-03-07T02:53:31;47.53;;;13.70;;
20478;SDS011;10398;52.490;13.434;2024-03-07T02:55:57;56.00;;;14.70;;
20478;SDS011;10398;52.490;13.434;2024-03-07T02:58:23;44.37;;;13.87;;
20478;SDS011;10398;52.490;13.434;2024-03-07T03:00:58;60.03;;;15.07;;
20478;SDS011;10398;52.490;13.434;2024-03-07T03:03:25;57.33;;;15.07;;
20478;SDS011;10398;52.490;13.434;2024-03-07T03:05:51;51.73;;;15.73;;
20478;SDS011;10398;52.490;13.434;2024-03-07T03:08:17;70.63;;;15.83;;
20478;SDS011;10398;52.490;13.434;2024-03-07T03:10:42;50.67;;;14.80;;
20478;SDS011;10398;52.490;13.434;2024-03-07T03:13:09;54.43;;;15.13;;
20478;SDS011;10398;52.490;13.434;2024-03-07T03:15:35;51.10;;;13.17;;
20478;SDS011;10398;52.490;13.434;2024-03-07T03:18:03;60.73;;;14.23;;
20478;SDS011;10398;52.490;13.434;2024-03-07T03:20:30;48.87;;;13.83;;
20478;SDS011;10398;52.490;13.434;2024-03-07T03:23:00;53.77;;;13.57;;
20478;SDS011;10398;52.490;13.434;2024-03-07T03:25:28;47.97;;;13.10;;
20478;SDS011;10398;52.490;13.434;2024-03-07T03:27:53;48.13;;;14.77;;
20478;SDS011;10398;52.490;13.434;2024-03-07T03:30:19;51.50;;;14.30;;
20478;SDS011;10398;52.490;13.434;2024-03-07T03:32:46;49.93;;;14.57;;
20478;SDS011;10398;52.490;13.434;2024-03-07T03:35:13;50.80;;;14.20;;
20478;SDS011;10398;52.490;13.434;2024-03-07T03:37:41;44.03;;;14.17;;
20478;SDS011;10398;52.490;13.434;2024-03-07T03:40:07;53.17;;;14.10;;
20478;SDS011;10398;52.490;13.434;2024-03-07T03:42:34;41.97;;;14.00;;
20478;SDS011;10398;52.490;13.434;2024-03-07T03:45:01;44.43;;;13.87;;
20478;SDS011;10398;52.490;13.434;2024-03-07T03:47:32;43.87;;;13.27;;
20478;SDS011;10398;52.490;13.434;2024-03-07T03:50:04;41.27;;;12.50;;
20478;SDS011;10398;52.490;13.434;2024-03-07T03:52:30;37.83;;;11.57;;
20478;SDS011;10398;52.490;13.434;2024-03-07T03:54:57;51.30;;;13.03;;
20478;SDS011;10398;52.490;13.434;2024-03-07T03:57:24;40.93;;;13.07;;
20478;SDS011;10398;52.490;13.434;2024-03-07T03:59:50;31.67;;;11.47;;
20478;SDS011;10398;52.490;13.434;2024-03-07T04:02:17;38.20;;;11.50;;
20478;SDS011;10398;52.490;13.434;2024-03-07T04:04:42;28.63;;;11.30;;
20478;SDS011;10398;52.490;13.434;2024-03-07T04:07:10;33.53;;;11.53;;
20478;SDS011;10398;52.490;13.434;2024-03-07T04:09:37;39.47;;;11.77;;
20478;SDS011;10398;52.490;13.434;2024-03-07T04:12:03;37.47;;;11.90;;
20478;SDS011;10398;52.490;13.434;2024-03-07T04:14:30;34.47;;;11.20;;
20478;SDS011;10398;52.490;13.434;2024-03-07T04:16:58;31.60;;;11.40;;
20478;SDS011;10398;52.490;13.434;2024-03-07T04:19:24;28.00;;;9.77;;
20478;SDS011;10398;52.490;13.434;2024-03-07T04:21:50;34.73;;;12.63;;
20478;SDS011;10398;52.490;13.434;2024-03-07T04:24:16;32.43;;;9.47;;
20478;SDS011;10398;52.490;13.434;2024-03-07T04:26:42;29.27;;;11.53;;
20478;SDS011;10398;52.490;13.434;2024-03-07T04:29:08;27.47;;;10.13;;
20478;SDS011;10398;52.490;13.434;2024-03-07T04:31:34;26.07;;;9.47;;
20478;SDS011;10398;52.490;13.434;2024-03-07T04:34:00;29.53;;;11.73;;
20478;SDS011;10398;52.490;13.434;2024-03-07T04:36:25;34.47;;;10.43;;
20478;SDS011;10398;52.490;13.434;2024-03-07T04:38:51;29.37;;;11.83;;
20478;SDS011;10398;52.490;13.434;2024-03-07T04:41:17;31.93;;;10.33;;
20478;SDS011;10398;52.490;13.434;2024-03-07T04:43:43;24.93;;;10.47;;
20478;SDS011;10398;52.490;13.434;2024-03-07T04:46:09;32.10;;;12.13;;
20478;SDS011;10398;52.490;13.434;2024-03-07T04:48:35;34.17;;;11.23;;
20478;SDS011;10398;52.490;13.434;2024-03-07T04:51:01;34.37;;;10.27;;
20478;SDS011;10398;52.490;13.434;2024-03-07T04:53:27;34.67;;;11.23;;
20478;SDS011;10398;52.490;13.434;2024-03-07T04:55:52;34.80;;;11.50;;
20478;SDS011;10398;52.490;13.434;2024-03-07T04:58:18;31.13;;;11.20;;
20478;SDS011;10398;52.490;13.434;2024-03-07T05:00:43;30.93;;;10.70;;
20478;SDS011;10398;52.490;13.434;2024-03-07T05:03:09;29.47;;;10.90;;
20478;SDS011;10398;52.490;13.434;2024-03-07T05:05:36;28.27;;;11.03;;
20478;SDS011;10398;52.490;13.434;2024-03-07T05:08:01;35.07;;;12.73;;
20478;SDS011;10398;52.490;13.434;2024-03-07T05:10:29;36.40;;;12.50;;
20478;SDS011;10398;52.490;13.434;2024-03-07T05:12:55;27.87;;;10.47;;
20478;SDS011;10398;52.490;13.434;2024-03-07T05:15:24;27.73;;;10.47;;
20478;SDS011;10398;52.490;13.434;2024-03-07T05:17:51;32.43;;;11.53;;
20478;SDS011;10398;52.490;13.434;2024-03-07T05:20:17;31.17;;;11.77;;
20478;SDS011;10398;52.490;13.434;2024-03-07T05:22:43;31.53;;;10.93;;
20478;SDS011;10398;52.490;13.434;2024-03-07T05:25:15;31.83;;;10.43;;
20478;SDS011;10398;52.490;13.434;2024-03-07T05:27:43;26.13;;;10.10;;
20478;SDS011;10398;52.490;13.434;2024-03-07T05:30:10;29.20;;;11.93;;
20478;SDS011;10398;52.490;13.434;2024-03-07T05:32:36;28.57;;;10.13;;
20478;SDS011;10398;52.490;13.434;2024-03-07T05:35:02;34.57;;;10.77;;
20478;SDS011;10398;52.490;13.434;2024-03-07T05:37:28;29.37;;;11.30;;
20478;SDS011;10398;52.490;13.434;2024-03-07T05:39:54;29.40;;;10.63;;
20478;SDS011;10398;52.490;13.434;2024-03-07T05:42:20;26.33;;;10.27;;
20478;SDS011;10398;52.490;13.434;2024-03-07T05:44:45;30.63;;;10.67;;
20478;SDS011;10398;52.490;13.434;2024-03-07T05:47:11;30.23;;;11.13;;
20478;SDS011;10398;52.490;13.434;2024-03-07T05:49:38;30.50;;;11.50;;
20478;SDS011;10398;52.490;13.434;2024-03-07T05:52:04;35.60;;;11.20;;
20478;SDS011;10398;52.490;13.434;2024-03-07T05:54:33;30.37;;;11.37;;
20478;SDS011;10398;52.490;13.434;2024-03-07T05:57:00;34.07;;;10.37;;
20478;SDS011;10398;52.490;13.434;2024-03-07T05:59:26;29.93;;;12.00;;
20478;SDS011;10398;52.490;13.434;2024-03-07T06:01:55;27.97;;;11.47;;
20478;SDS011;10398;52.490;13.434;2024-03-07T06:04:21;32.00;;;11.40;;
20478;SDS011;10398;52.490;13.434;2024-03-07T06:06:47;21.17;;;8.60;;
20478;SDS011;10398;52.490;13.434;2024-03-07T06:09:13;21.87;;;9.70;;
20478;SDS011;10398;52.490;13.434;2024-03-07T06:11:39;22.27;;;9.40;;
20478;SDS011;10398;52.490;13.434;2024-03-07T06:14:08;24.50;;;9.83;;
20478;SDS011;10398;52.490;13.434;2024-03-07T06:16:38;21.43;;;9.37;;
20478;SDS011;10398;52.490;13.434;2024-03-07T06:19:05;29.73;;;8.57;;
20478;SDS011;10398;52.490;13.434;2024-03-07T06:21:35;29.27;;;10.40;;
20478;SDS011;10398;52.490;13.434;2024-03-07T06:24:02;30.50;;;9.90;;
20478;SDS011;10398;52.490;13.434;2024-03-07T06:26:32;30.40;;;9.67;;
20478;SDS011;10398;52.490;13.434;2024-03-07T06:29:17;25.63;;;9.20;;
20478;SDS011;10398;52.490;13.434;2024-03-07T06:31:43;25.87;;;8.33;;
20478;SDS011;10398;52.490;13.434;2024-03-07T06:34:12;34.20;;;10.23;;
20478;SDS011;10398;52.490;13.434;2024-03-07T06:36:38;27.43;;;9.97;;
20478;SDS011;10398;52.490;13.434;2024-03-07T06:39:05;27.40;;;8.63;;
20478;SDS011;10398;52.490;13.434;2024-03-07T06:41:35;29.37;;;9.60;;
20478;SDS011;10398;52.490;13.434;2024-03-07T06:44:01;20.57;;;8.07;;
20478;SDS011;10398;52.490;13.434;2024-03-07T06:46:27;23.77;;;8.10;;
20478;SDS011;10398;52.490;13.434;2024-03-07T06:48:53;25.93;;;8.93;;
20478;SDS011;10398;52.490;13.434;2024-03-07T06:51:19;26.67;;;8.23;;
20478;SDS011;10398;52.490;13.434;2024-03-07T06:53:45;18.23;;;7.57;;
20478;SDS011;10398;52.490;13.434;2024-03-07T06:56:15;28.03;;;8.10;;
20478;SDS011;10398;52.490;13.434;2024-03-07T06:58:41;21.87;;;7.33;;
20478;SDS011;10398;52.490;13.434;2024-03-07T07:01:08;19.00;;;7.53;;
20478;SDS011;10398;52.490;13.434;2024-03-07T07:03:38;19.87;;;6.77;;
20478;SDS011;10398;52.490;13.434;2024-03-07T07:06:04;23.63;;;6.93;;
20478;SDS011;10398;52.490;13.434;2024-03-07T07:08:32;19.70;;;7.43;;
20478;SDS011;10398;52.490;13.434;2024-03-07T07:10:58;18.07;;;6.63;;
20478;SDS011;10398;52.490;13.434;2024-03-07T07:13:24;19.50;;;7.50;;
20478;SDS011;10398;52.490;13.434;2024-03-07T07:15:50;20.10;;;7.67;;
20478;SDS011;10398;52.490;13.434;2024-03-07T07:18:16;19.60;;;6.77;;
20478;SDS011;10398;52.490;13.434;2024-03-07T07:20:42;22.03;;;7.47;;
20478;SDS011;10398;52.490;13.434;2024-03-07T07:23:08;18.07;;;7.17;;
20478;SDS011;10398;52.490;13.434;2024-03-07T07:25:34;23.83;;;7.10;;
20478;SDS011;10398;52.490;13.434;2024-03-07T07:28:00;23.57;;;8.83;;
20478;SDS011;10398;52.490;13.434;2024-03-07T07:30:29;16.50;;;6.47;;
20478;SDS011;10398;52.490;13.434;2024-03-07T07:32:55;27.40;;;6.83;;
20478;SDS011;10398;52.490;13.434;2024-03-07T07:35:21;16.33;;;6.70;;
20478;SDS011;10398;52.490;13.434;2024-03-07T07:37:50;20.33;;;7.13;;
20478;SDS011;10398;52.490;13.434;2024-03-07T07:40:19;15.50;;;6.97;;
20478;SDS011;10398;52.490;13.434;2024-03-07T07:42:48;16.00;;;6.30;;
20478;SDS011;10398;52.490;13.434;2024-03-07T07:45:16;18.70;;;6.20;;
20478;SDS011;10398;52.490;13.434;2024-03-07T07:47:43;20.33;;;6.83;;
20478;SDS011;10398;52.490;13.434;2024-03-07T07:50:10;16.47;;;5.57;;
20478;SDS011;10398;52.490;13.434;2024-03-07T07:52:42;14.93;;;5.37;;
20478;SDS011;10398;52.490;13.434;2024-03-07T07:55:10;16.37;;;5.70;;
20478;SDS011;10398;52.490;13.434;2024-03-07T07:57:49;18.10;;;6.97;;
20478;SDS011;10398;52.490;13.434;2024-03-07T08:00:20;17.20;;;6.43;;
20478;SDS011;10398;52.490;13.434;2024-03-07T08:05:29;19.97;;;6.73;;
20478;SDS011;10398;52.490;13.434;2024-03-07T08:07:58;21.17;;;7.50;;
20478;SDS011;10398;52.490;13.434;2024-03-07T08:10:26;18.33;;;6.20;;
20478;SDS011;10398;52.490;13.434;2024-03-07T08:12:53;14.03;;;5.87;;
20478;SDS011;10398;52.490;13.434;2024-03-07T08:15:21;17.43;;;6.87;;
20478;SDS011;10398;52.490;13.434;2024-03-07T08:17:47;20.07;;;6.43;;
20478;SDS011;10398;52.490;13.434;2024-03-07T08:20:13;19.83;;;7.00;;
20478;SDS011;10398;52.490;13.434;2024-03-07T08:22:41;15.70;;;6.47;;
20478;SDS011;10398;52.490;13.434;2024-03-07T08:25:11;14.57;;;6.53;;
20478;SDS011;10398;52.490;13.434;2024-03-07T08:27:38;22.40;;;7.17;;
20478;SDS011;10398;52.490;13.434;2024-03-07T08:30:06;19.17;;;7.37;;
20478;SDS011;10398;52.490;13.434;2024-03-07T08:32:33;21.30;;;7.03;;
20478;SDS011;10398;52.490;13.434;2024-03-07T08:35:02;17.73;;;6.47;;
20478;SDS011;10398;52.490;13.434;2024-03-07T08:37:31;19.43;;;7.70;;
20478;SDS011;10398;52.490;13.434;2024-03-07T08:40:00;15.03;;;6.70;;
20478;SDS011;10398;52.490;13.434;2024-03-07T08:42:29;21.67;;;7.20;;
20478;SDS011;10398;52.490;13.434;2024-03-07T08:44:57;13.30;;;5.60;;
20478;SDS011;10398;52.490;13.434;2024-03-07T08:47:23;18.80;;;6.73;;
20478;SDS011;10398;52.490;13.434;2024-03-07T08:49:49;19.50;;;7.63;;
20478;SDS011;10398;52.490;13.434;2024-03-07T08:52:16;15.80;;;6.53;;
20478;SDS011;10398;52.490;13.434;2024-03-07T08:54:41;18.13;;;7.40;;
20478;SDS011;10398;52.490;13.434;2024-03-07T08:57:09;15.73;;;6.27;;
20478;SDS011;10398;52.490;13.434;2024-03-07T08:59:34;17.83;;;7.63;;
20478;SDS011;10398;52.490;13.434;2024-03-07T09:02:01;12.97;;;5.73;;
20478;SDS011;10398;52.490;13.434;2024-03-07T09:04:27;14.13;;;5.40;;
20478;SDS011;10398;52.490;13.434;2024-03-07T09:06:54;14.57;;;6.40;;
20478;SDS011;10398;52.490;13.434;2024-03-07T09:09:19;19.37;;;6.70;;
20478;SDS011;10398;52.490;13.434;2024-03-07T09:11:45;17.73;;;6.43;;
20478;SDS011;10398;52.490;13.434;2024-03-07T09:14:12;17.30;;;5.80;;
20478;SDS011;10398;52.490;13.434;2024-03-07T09:16:37;15.63;;;5.90;;
20478;SDS011;10398;52.490;13.434;2024-03-07T09:19:03;14.33;;;5.73;;
20478;SDS011;10398;52.490;13.434;2024-03-07T09:21:28;18.07;;;6.23;;
20478;SDS011;10398;52.490;13.434;2024-03-07T09:23:54;19.63;;;7.20;;
20478;SDS011;10398;52.490;13.434;2024-03-07T09:26:20;19.53;;;6.70;;
20478;SDS011;10398;52.490;13.434;2024-03-07T09:28:46;11.47;;;5.10;;
20478;SDS011;10398;52.490;13.434;2024-03-07T09:31:14;14.37;;;4.97;;
20478;SDS011;10398;52.490;13.434;2024-03-07T09:33:40;14.83;;;6.20;;
20478;SDS011;10398;52.490;13.434;2024-03-07T09:36:06;17.63;;;6.47;;
20478;SDS011;10398;52.490;13.434;2024-03-07T09:38:33;16.17;;;5.80;;
20478;SDS011;10398;52.490;13.434;2024-03-07T09:40:59;11.83;;;5.70;;
20478;SDS011;10398;52.490;13.434;2024-03-07T09:43:25;13.87;;;5.30;;
20478;SDS011;10398;52.490;13.434;2024-03-07T09:45:53;11.00;;;4.30;;
20478;SDS011;10398;52.490;13.434;2024-03-07T09:48:20;12.67;;;4.93;;
20478;SDS011;10398;52.490;13.434;2024-03-07T09:50:47;15.83;;;5.53;;
20478;SDS011;10398;52.490;13.434;2024-03-07T09:53:17;11.53;;;4.83;;
20478;SDS011;10398;52.490;13.434;2024-03-07T09:55:45;12.47;;;5.00;;
20478;SDS011;10398;52.490;13.434;2024-03-07T09:58:11;14.43;;;4.90;;
20478;SDS011;10398;52.490;13.434;2024-03-07T10:00:39;12.93;;;5.03;;
20478;SDS011;10398;52.490;13.434;2024-03-07T10:03:06;11.10;;;4.97;;
20478;SDS011;10398;52.490;13.434;2024-03-07T10:05:34;13.90;;;5.10;;
20478;SDS011;10398;52.490;13.434;2024-03-07T10:08:00;12.33;;;5.23;;
20478;SDS011;10398;52.490;13.434;2024-03-07T10:10:26;16.93;;;5.37;;
20478;SDS011;10398;52.490;13.434;2024-03-07T10:12:52;15.17;;;4.93;;
20478;SDS011;10398;52.490;13.434;2024-03-07T10:15:27;15.17;;;5.07;;
20478;SDS011;10398;52.490;13.434;2024-03-07T10:17:56;9.53;;;4.87;;
20478;SDS011;10398;52.490;13.434;2024-03-07T10:20:23;13.20;;;5.13;;
20478;SDS011;10398;52.490;13.434;2024-03-07T10:22:49;14.27;;;5.00;;
20478;SDS011;10398;52.490;13.434;2024-03-07T10:25:21;12.70;;;5.07;;
20478;SDS011;10398;52.490;13.434;2024-03-07T10:27:50;11.57;;;4.43;;
20478;SDS011;10398;52.490;13.434;2024-03-07T10:30:16;9.87;;;4.30;;
20478;SDS011;10398;52.490;13.434;2024-03-07T10:32:48;11.87;;;4.13;;
20478;SDS011;10398;52.490;13.434;2024-03-07T10:35:21;11.80;;;4.37;;
20478;SDS011;10398;52.490;13.434;2024-03-07T10:37:53;8.83;;;4.20;;
20478;SDS011;10398;52.490;13.434;2024-03-07T10:40:20;10.73;;;4.77;;
20478;SDS011;10398;52.490;13.434;2024-03-07T10:42:47;10.60;;;4.73;;
20478;SDS011;10398;52.490;13.434;2024-03-07T10:45:17;13.47;;;4.10;;
20478;SDS011;10398;52.490;13.434;2024-03-07T10:47:46;10.90;;;4.37;;
20478;SDS011;10398;52.490;13.434;2024-03-07T10:50:28;15.30;;;5.87;;
20478;SDS011;10398;52.490;13.434;2024-03-07T10:53:10;10.40;;;5.07;;
20478;SDS011;10398;52.490;13.434;2024-03-07T10:55:38;18.57;;;4.93;;
20478;SDS011;10398;52.490;13.434;2024-03-07T11:00:45;17.63;;;6.67;;
20478;SDS011;10398;52.490;13.434;2024-03-07T11:03:13;12.87;;;5.60;;
20478;SDS011;10398;52.490;13.434;2024-03-07T11:05:39;15.53;;;5.83;;
20478;SDS011;10398;52.490;13.434;2024-03-07T11:08:08;14.63;;;6.17;;
20478;SDS011;10398;52.490;13.434;2024-03-07T11:10:38;12.60;;;6.20;;
20478;SDS011;10398;52.490;13.434;2024-03-07T11:13:05;17.90;;;5.70;;
20478;SDS011;10398;52.490;13.434;2024-03-07T11:15:35;11.83;;;4.93;;
20478;SDS011;10398;52.490;13.434;2024-03-07T11:18:02;14.23;;;5.97;;
20478;SDS011;10398;52.490;13.434;2024-03-07T11:20:35;11.20;;;5.30;;
20478;SDS011;10398;52.490;13.434;2024-03-07T11:23:24;12.30;;;5.40;;
20478;SDS011;10398;52.490;13.434;2024-03-07T11:25:54;11.67;;;5.63;;
20478;SDS011;10398;52.490;13.434;2024-03-07T11:28:27;11.17;;;5.10;;
20478;SDS011;10398;52.490;13.434;2024-03-07T11:30:54;13.93;;;5.87;;
20478;SDS011;10398;52.490;13.434;2024-03-07T11:33:20;13.57;;;5.80;;
20478;SDS011;10398;52.490;13.434;2024-03-07T11:35:48;17.23;;;6.10;;
20478;SDS011;10398;52.490;13.434;2024-03-07T11:38:14;13.73;;;6.03;;
20478;SDS011;10398;52.490;13.434;2024-03-07T11:43:10;12.37;;;5.77;;
20478;SDS011;10398;52.490;13.434;2024-03-07T11:45:37;13.77;;;5.80;;
20478;SDS011;10398;52.490;13.434;2024-03-07T11:48:10;12.90;;;5.40;;
20478;SDS011;10398;52.490;13.434;2024-03-07T11:50:36;16.60;;;6.33;;
20478;SDS011;10398;52.490;13.434;2024-03-07T11:53:06;14.50;;;5.97;;
20478;SDS011;10398;52.490;13.434;2024-03-07T11:55:33;11.83;;;5.73;;
20478;SDS011;10398;52.490;13.434;2024-03-07T12:00:44;12.90;;;6.30;;
20478;SDS011;10398;52.490;13.434;2024-03-07T12:03:14;12.77;;;5.40;;
20478;SDS011;10398;52.490;13.434;2024-03-07T12:05:46;15.37;;;6.10;;
20478;SDS011;10398;52.490;13.434;2024-03-07T12:08:12;17.03;;;6.20;;
20478;SDS011;10398;52.490;13.434;2024-03-07T12:10:39;14.60;;;6.80;;
20478;SDS011;10398;52.490;13.434;2024-03-07T12:13:08;12.27;;;6.47;;
20478;SDS011;10398;52.490;13.434;2024-03-07T12:15:38;15.50;;;6.97;;
20478;SDS011;10398;52.490;13.434;2024-03-07T12:18:04;16.03;;;6.53;;
20478;SDS011;10398;52.490;13.434;2024-03-07T12:20:34;12.50;;;6.23;;
20478;SDS011;10398;52.490;13.434;2024-03-07T12:23:02;13.93;;;6.13;;
20478;SDS011;10398;52.490;13.434;2024-03-07T12:25:30;15.83;;;6.47;;
20478;SDS011;10398;52.490;13.434;2024-03-07T12:30:31;15.10;;;7.17;;
20478;SDS011;10398;52.490;13.434;2024-03-07T12:32:59;14.53;;;6.27;;
20478;SDS011;10398;52.490;13.434;2024-03-07T12:35:27;12.77;;;6.37;;
20478;SDS011;10398;52.490;13.434;2024-03-07T12:37:53;13.57;;;6.50;;
20478;SDS011;10398;52.490;13.434;2024-03-07T12:40:19;15.53;;;6.83;;
20478;SDS011;10398;52.490;13.434;2024-03-07T12:42:50;14.73;;;6.90;;
20478;SDS011;10398;52.490;13.434;2024-03-07T12:45:18;13.43;;;6.50;;
20478;SDS011;10398;52.490;13.434;2024-03-07T12:47:46;18.00;;;7.00;;
20478;SDS011;10398;52.490;13.434;2024-03-07T12:50:21;12.83;;;6.00;;
20478;SDS011;10398;52.490;13.434;2024-03-07T12:52:47;15.83;;;7.27;;
20478;SDS011;10398;52.490;13.434;2024-03-07T12:55:17;16.57;;;7.30;;
20478;SDS011;10398;52.490;13.434;2024-03-07T12:57:48;18.00;;;6.93;;
20478;SDS011;10398;52.490;13.434;2024-03-07T13:00:17;17.90;;;7.40;;
20478;SDS011;10398;52.490;13.434;2024-03-07T13:02:49;17.33;;;7.53;;
20478;SDS011;10398;52.490;13.434;2024-03-07T13:05:14;15.97;;;8.00;;
20478;SDS011;10398;52.490;13.434;2024-03-07T13:07:46;17.60;;;7.60;;
20478;SDS011;10398;52.490;13.434;2024-03-07T13:10:13;18.60;;;8.03;;
20478;SDS011;10398;52.490;13.434;2024-03-07T13:12:43;16.17;;;7.90;;
20478;SDS011;10398;52.490;13.434;2024-03-07T13:15:10;17.97;;;7.50;;
20478;SDS011;10398;52.490;13.434;2024-03-07T13:17:37;19.63;;;8.63;;
20478;SDS011;10398;52.490;13.434;2024-03-07T13:20:03;15.97;;;7.63;;
20478;SDS011;10398;52.490;13.434;2024-03-07T13:22:36;17.43;;;7.63;;
20478;SDS011;10398;52.490;13.434;2024-03-07T13:25:07;15.97;;;6.90;;
20478;SDS011;10398;52.490;13.434;2024-03-07T13:27:43;12.27;;;6.30;;
20478;SDS011;10398;52.490;13.434;2024-03-07T13:30:15;12.97;;;6.30;;
20478;SDS011;10398;52.490;13.434;2024-03-07T13:32:47;13.40;;;5.73;;
20478;SDS011;10398;52.490;13.434;2024-03-07T13:35:14;14.80;;;6.43;;
20478;SDS011;10398;52.490;13.434;2024-03-07T13:37:40;15.07;;;6.30;;
20478;SDS011;10398;52.490;13.434;2024-03-07T13:40:06;15.70;;;6.23;;
20478;SDS011;10398;52.490;13.434;2024-03-07T13:42:47;15.30;;;7.30;;
20478;SDS011;10398;52.490;13.434;2024-03-07T13:45:26;10.20;;;4.97;;
20478;SDS011;10398;52.490;13.434;2024-03-07T13:47:53;15.03;;;6.23;;
20478;SDS011;10398;52.490;13.434;2024-03-07T13:50:20;12.83;;;6.20;;
20478;SDS011;10398;52.490;13.434;2024-03-07T13:52:53;15.10;;;7.17;;
20478;SDS011;10398;52.490;13.434;2024-03-07T14:06:50;13.97;;;6.33;;
20478;SDS011;10398;52.490;13.434;2024-03-07T14:09:49;16.17;;;6.40;;
20478;SDS011;10398;52.490;13.434;2024-03-07T14:15:56;17.10;;;6.37;;
20478;SDS011;10398;52.490;13.434;2024-03-07T14:24:36;14.00;;;6.57;;
20478;SDS011;10398;52.490;13.434;2024-03-07T14:27:37;15.00;;;6.67;;
20478;SDS011;10398;52.490;13.434;2024-03-07T14:30:56;15.00;;;7.20;;
20478;SDS011;10398;52.490;13.434;2024-03-07T14:33:11;14.20;;;6.33;;
20478;SDS011;10398;52.490;13.434;2024-03-07T14:38:27;12.17;;;6.30;;
20478;SDS011;10398;52.490;13.434;2024-03-07T14:41:04;14.70;;;5.77;;
20478;SDS011;10398;52.490;13.434;2024-03-07T14:43:32;24.20;;;7.43;;
20478;SDS011;10398;52.490;13.434;2024-03-07T14:45:59;20.43;;;6.87;;
20478;SDS011;10398;52.490;13.434;2024-03-07T14:48:25;16.10;;;6.70;;
20478;SDS011;10398;52.490;13.434;2024-03-07T14:50:52;16.10;;;7.03;;
20478;SDS011;10398;52.490;13.434;2024-03-07T14:53:18;14.00;;;6.83;;
20478;SDS011;10398;52.490;13.434;2024-03-07T14:55:48;16.47;;;6.77;;
20478;SDS011;10398;52.490;13.434;2024-03-07T14:58:13;18.60;;;6.67;;